Startpagina
METAR-TAF:

METAR-TAF

Vliegvelden :

Luchthaven Dakar

Dakar, Senegal

breedte: 14-44N, lengte: 017-30W, hoogte: 27 m

Actueel weer

Dit bericht is 31 minuten geleden gemaakt, om 01:00 UTC
Wind 4 kt uit het noorden
Temperatuur 22°C
Vochtigheid 83%
Druk 1013 hPa
Zicht: 8000 m

METAR: GOOY 290100Z 36004KT 8000 NSC 22/19 Q1013

Tijdstip: 01:31 (01:31 UTC)

Verwachting

Dit bericht is 2 uur en het 1 minuten geleden gemaakt, om 23:30 UTC
Verwachting geldig van 29 om 00 UTC tot 30 om 06 UTC
Wind 8 kt uit het noorden
Zicht 10 km of meer
geen wolken onder 1500 m en geen cumulonimbus

TAF: GOOY 282330Z 2900/3006 01008KT CAVOK

Waarnemingen en weersverwachtingen van meer dan 4000 vliegvelden (METAR en TAF).

De beschikbare stations zijn de gele en rode punten op de kaart.

Ga met uw muis naar het station om de naam te zien.

Klik dan om waarnemingen en weersverwachtingen te zien.

kaart wijzigen: klik op de groene knoppen met een zwart kruis om in te zoomen, op de groene knop met een streepje om uit te zoomen of op de groene pijlen voor aangrenzende kaarten.


METAR-TAF: